Terminal Aerodrome Forecast
Issued by NWS

Home | Current Version | Previous Version | Text Only | Print | Product List | Glossary On
Versions: 1 2 3 4 5 6 7 8 9 10 11 12 13 14 15 16 17 18 19 20 21 22 23 24
000
FTUS45 KBOU 230852 AAA
TAFAPA
TAF AMD
KAPA 230852Z 2309/2406 20006KT P6SM FEW220
     FM231900 30011KT P6SM FEW120 BKN220
     FM240200 23009KT P6SM FEW120 BKN220=

USA.gov is the U.S. government's official web portal to all federal, state and local government web resources and services.